Time;durP1;ratioP1;P1;durP2;ratioP2;P2;SDS_P1;SDS_P2;PMS_P1;PMS_P2;Temp;Humidity;BMP_temperature;BMP_pressure;BME280_temperature;BME280_humidity;BME280_pressure;Samples;Min_cycle;Max_cycle;Signal;HPM_P1;HPM_P2
2022/10/12 00:02:42;;;;;;;37.15;20.63;;;;;;;;;;10266384;28;20231;-73
2022/10/12 00:07:42;;;;;;;40.60;19.42;;;;;;;;;;10266091;28;20057;-75
2022/10/12 00:12:43;;;;;;;40.65;19.25;;;;;;;;;;10265927;28;20058;-74
2022/10/12 00:17:43;;;;;;;41.03;19.83;;;;;;;;;;10289797;28;20023;-83
2022/10/12 00:22:43;;;;;;;38.20;20.05;;;;;;;;;;10265434;28;20038;-81
2022/10/12 00:27:45;;;;;;;41.17;19.27;;;;;;;;;;10265750;28;20105;-74
2022/10/12 00:32:45;;;;;;;32.53;17.38;;;;;;;;;;10264368;28;20042;-78
2022/10/12 00:37:45;;;;;;;40.70;19.63;;;;;;;;;;10290434;28;20022;-82
2022/10/12 00:42:47;;;;;;;38.78;18.70;;;;;;;;;;10290865;28;20113;-76
2022/10/12 00:47:52;;;;;;;38.53;18.92;;;;;;;;;;10278309;28;20023;-76
2022/10/12 00:52:59;;;;;;;37.80;18.95;;;;;;;;;;10266560;28;20026;-77
2022/10/12 00:57:59;;;;;;;38.67;17.38;;;;;;;;;;10264078;28;20019;-75
2022/10/12 01:03:00;;;;;;;36.03;17.40;;;;;;;;;;10265649;28;20441;-75
2022/10/12 01:08:01;;;;;;;30.55;17.40;;;;;;;;;;10289182;28;20050;-76
2022/10/12 01:13:02;;;;;;;37.60;16.30;;;;;;;;;;10261718;28;20629;-75
2022/10/12 01:18:02;;;;;;;30.77;17.30;;;;;;;;;;10262980;28;20026;-74
2022/10/12 01:23:21;;;;;;;37.80;16.33;;;;;;;;;;10262903;28;20468;-80
2022/10/12 01:28:30;;;;;;;29.00;15.57;;;;;;;;;;10275136;28;20035;-77
2022/10/12 01:33:34;;;;;;;26.70;15.88;;;;;;;;;;10261972;28;20477;-76
2022/10/12 01:38:57;;;;;;;30.60;15.25;;;;;;;;;;10263125;28;20090;-75
2022/10/12 01:43:57;;;;;;;28.58;15.10;;;;;;;;;;10255220;28;20527;-74
2022/10/12 01:48:59;;;;;;;29.67;16.15;;;;;;;;;;10262386;28;20022;-77
2022/10/12 01:53:59;;;;;;;33.47;15.45;;;;;;;;;;10257608;28;20015;-75
2022/10/12 01:59:24;;;;;;;25.67;13.77;;;;;;;;;;10262998;28;20015;-75
2022/10/12 02:04:31;;;;;;;34.45;16.02;;;;;;;;;;10261092;28;20037;-75
2022/10/12 02:09:33;;;;;;;29.17;16.73;;;;;;;;;;10262654;28;20039;-77
2022/10/12 02:14:45;;;;;;;28.83;15.85;;;;;;;;;;10260674;28;20037;-77
2022/10/12 02:19:55;;;;;;;26.75;14.27;;;;;;;;;;10260248;28;20027;-78
2022/10/12 02:24:57;;;;;;;30.05;15.80;;;;;;;;;;10273809;28;20031;-75
2022/10/12 02:29:57;;;;;;;29.85;15.30;;;;;;;;;;10266385;28;20517;-73
2022/10/12 02:34:58;;;;;;;29.02;13.68;;;;;;;;;;10262463;28;20019;-76
2022/10/12 02:40:20;;;;;;;26.25;14.45;;;;;;;;;;10260156;28;20375;-77
2022/10/12 02:45:21;;;;;;;26.73;13.95;;;;;;;;;;10275552;28;20413;-81
2022/10/12 02:50:22;;;;;;;27.85;14.98;;;;;;;;;;10262280;28;20568;-75
2022/10/12 02:55:29;;;;;;;24.73;13.75;;;;;;;;;;10257648;28;20038;-81
2022/10/12 03:00:32;;;;;;;24.55;13.65;;;;;;;;;;10261761;28;20110;-74
2022/10/12 03:05:33;;;;;;;25.98;14.40;;;;;;;;;;10245128;28;20041;-74
2022/10/12 03:10:33;;;;;;;25.42;13.88;;;;;;;;;;10259595;28;20074;-75
2022/10/12 03:15:33;;;;;;;28.90;14.82;;;;;;;;;;10263014;28;20026;-79
2022/10/12 03:20:33;;;;;;;28.88;15.73;;;;;;;;;;10285902;28;20022;-76
2022/10/12 03:25:33;;;;;;;33.47;15.63;;;;;;;;;;10256908;28;20074;-74
2022/10/12 03:30:34;;;;;;;27.23;14.27;;;;;;;;;;10262600;28;20033;-78
2022/10/12 03:35:34;;;;;;;32.13;13.88;;;;;;;;;;10262327;28;20118;-80
2022/10/12 03:40:35;;;;;;;27.20;14.63;;;;;;;;;;10291815;28;20011;-76
2022/10/12 03:45:35;;;;;;;29.15;15.95;;;;;;;;;;10273241;28;20557;-77
2022/10/12 03:50:36;;;;;;;26.17;14.13;;;;;;;;;;10256566;28;20030;-75
2022/10/12 03:55:38;;;;;;;28.03;13.73;;;;;;;;;;10263162;28;20481;-78
2022/10/12 04:00:39;;;;;;;26.25;14.43;;;;;;;;;;10265957;28;20706;-75
2022/10/12 04:05:39;;;;;;;23.35;13.73;;;;;;;;;;10264086;28;20093;-73
2022/10/12 04:10:40;;;;;;;28.80;15.02;;;;;;;;;;10270722;28;20058;-76
2022/10/12 04:15:40;;;;;;;29.95;14.88;;;;;;;;;;10260494;28;20089;-77
2022/10/12 04:20:41;;;;;;;26.50;13.80;;;;;;;;;;10285522;28;20027;-74
2022/10/12 04:25:41;;;;;;;30.58;15.35;;;;;;;;;;10266269;28;20030;-76
2022/10/12 04:30:41;;;;;;;35.92;16.88;;;;;;;;;;10257790;28;20097;-74
2022/10/12 04:35:41;;;;;;;33.05;16.23;;;;;;;;;;10264696;28;20035;-76
2022/10/12 04:40:48;;;;;;;27.40;14.07;;;;;;;;;;10264150;28;20047;-75
2022/10/12 04:45:55;;;;;;;21.92;13.23;;;;;;;;;;10264293;28;20027;-74
2022/10/12 04:50:55;;;;;;;25.70;14.75;;;;;;;;;;10258680;28;20469;-75
2022/10/12 04:55:56;;;;;;;26.73;14.65;;;;;;;;;;10264520;28;20027;-76
2022/10/12 05:00:56;;;;;;;27.38;14.55;;;;;;;;;;10262699;28;20090;-80
2022/10/12 05:05:56;;;;;;;33.80;15.80;;;;;;;;;;10256668;28;20500;-76
2022/10/12 05:10:58;;;;;;;29.25;15.88;;;;;;;;;;10258522;28;20306;-75
2022/10/12 05:15:59;;;;;;;44.40;20.15;;;;;;;;;;10260245;28;20081;-78
2022/10/12 05:20:59;;;;;;;41.70;20.40;;;;;;;;;;10330669;23;20552;-74
2022/10/12 05:26:00;;;;;;;40.05;18.63;;;;;;;;;;10306369;28;20113;-81
2022/10/12 05:31:00;;;;;;;31.67;15.35;;;;;;;;;;10306611;28;20407;-82
2022/10/12 05:36:00;;;;;;;33.67;16.02;;;;;;;;;;10305060;28;20026;-75
2022/10/12 05:41:00;;;;;;;37.13;15.27;;;;;;;;;;10303568;28;20045;-80
2022/10/12 05:46:01;;;;;;;31.20;17.05;;;;;;;;;;10300090;28;20062;-74
2022/10/12 05:51:01;;;;;;;34.97;18.77;;;;;;;;;;10299685;28;20025;-83
2022/10/12 05:56:01;;;;;;;36.27;16.43;;;;;;;;;;10303311;28;20027;-75
2022/10/12 06:01:05;;;;;;;30.65;16.55;;;;;;;;;;10300388;28;20039;-76
2022/10/12 06:06:06;;;;;;;42.75;16.50;;;;;;;;;;10300379;28;20023;-80
2022/10/12 06:11:06;;;;;;;36.43;18.27;;;;;;;;;;10301173;28;20034;-82
2022/10/12 06:16:06;;;;;;;36.90;16.23;;;;;;;;;;10302400;28;20285;-79
2022/10/12 06:21:06;;;;;;;33.63;15.05;;;;;;;;;;10325129;28;20491;-78
2022/10/12 06:26:07;;;;;;;27.83;15.43;;;;;;;;;;10324291;28;20093;-75
2022/10/12 06:31:07;;;;;;;32.70;16.38;;;;;;;;;;10301000;28;20031;-75
2022/10/12 06:36:08;;;;;;;30.20;16.85;;;;;;;;;;10299261;28;20026;-81
2022/10/12 06:41:08;;;;;;;46.90;17.27;;;;;;;;;;10300349;28;20029;-81
2022/10/12 06:46:08;;;;;;;48.58;17.15;;;;;;;;;;10302045;28;20026;-83
2022/10/12 06:51:09;;;;;;;37.33;16.73;;;;;;;;;;10324874;28;20092;-79
2022/10/12 06:56:09;;;;;;;36.53;17.48;;;;;;;;;;10300488;28;20037;-75
2022/10/12 07:01:09;;;;;;;39.13;16.85;;;;;;;;;;10300568;28;20039;-80
2022/10/12 07:06:11;;;;;;;32.65;15.23;;;;;;;;;;10299342;28;20505;-79
2022/10/12 07:11:12;;;;;;;32.78;16.08;;;;;;;;;;10301006;28;20454;-78
2022/10/12 07:16:12;;;;;;;32.13;16.98;;;;;;;;;;10298091;28;20022;-78
2022/10/12 07:21:12;;;;;;;30.33;15.40;;;;;;;;;;10298655;28;20532;-77
2022/10/12 07:26:13;;;;;;;34.80;16.45;;;;;;;;;;10300493;28;20487;-75
2022/10/12 07:31:13;;;;;;;28.60;14.27;;;;;;;;;;10306219;28;20022;-73
2022/10/12 07:36:13;;;;;;;30.23;15.02;;;;;;;;;;10303930;28;20038;-75
2022/10/12 07:41:14;;;;;;;31.00;15.05;;;;;;;;;;10330952;28;20027;-78
2022/10/12 07:46:14;;;;;;;28.40;14.20;;;;;;;;;;10305417;28;20030;-79
2022/10/12 07:51:14;;;;;;;32.92;14.20;;;;;;;;;;10306817;28;20025;-78
2022/10/12 07:56:15;;;;;;;37.25;15.15;;;;;;;;;;10331656;28;20081;-73
2022/10/12 08:01:15;;;;;;;31.53;18.83;;;;;;;;;;10305229;28;20022;-75
2022/10/12 08:06:17;;;;;;;24.83;13.10;;;;;;;;;;10307083;28;20274;-81
2022/10/12 08:11:18;;;;;;;26.88;13.00;;;;;;;;;;10313018;28;20108;-75
2022/10/12 08:16:19;;;;;;;28.23;13.98;;;;;;;;;;10322442;28;20030;-74
2022/10/12 08:21:19;;;;;;;27.30;12.77;;;;;;;;;;10324638;28;20050;-81
2022/10/12 08:26:19;;;;;;;23.42;13.07;;;;;;;;;;10312761;28;20055;-80
2022/10/12 08:31:19;;;;;;;27.00;12.68;;;;;;;;;;10330799;28;20022;-75
2022/10/12 08:36:20;;;;;;;34.67;14.60;;;;;;;;;;10306246;28;20078;-74
2022/10/12 08:41:20;;;;;;;33.78;12.80;;;;;;;;;;10287016;28;20427;-84
2022/10/12 08:46:22;;;;;;;30.60;13.85;;;;;;;;;;10304246;28;20022;-78
2022/10/12 08:51:25;;;;;;;31.15;13.38;;;;;;;;;;10304344;28;20038;-75
2022/10/12 08:56:25;;;;;;;24.40;12.70;;;;;;;;;;10305003;28;20603;-79
2022/10/12 09:01:25;;;;;;;27.67;13.63;;;;;;;;;;10309333;28;20038;-78
2022/10/12 09:06:32;;;;;;;23.08;11.57;;;;;;;;;;10307970;28;20026;-80
2022/10/12 09:11:32;;;;;;;27.67;13.20;;;;;;;;;;10304525;28;20026;-74
2022/10/12 09:16:34;;;;;;;28.80;14.75;;;;;;;;;;10305203;28;20034;-74
2022/10/12 09:21:35;;;;;;;29.63;14.55;;;;;;;;;;10300661;28;20102;-77
2022/10/12 09:26:36;;;;;;;24.85;12.93;;;;;;;;;;10299964;28;20026;-77
2022/10/12 09:31:43;;;;;;;28.60;13.50;;;;;;;;;;10302473;28;20061;-75
2022/10/12 09:36:43;;;;;;;24.00;12.55;;;;;;;;;;10303636;28;20349;-76
2022/10/12 09:41:44;;;;;;;32.33;14.70;;;;;;;;;;10302256;28;20027;-79
2022/10/12 09:47:05;;;;;;;27.65;14.00;;;;;;;;;;10302035;28;20639;-78
2022/10/12 09:52:05;;;;;;;22.80;11.52;;;;;;;;;;10301157;28;20042;-80
2022/10/12 09:57:06;;;;;;;27.00;12.77;;;;;;;;;;10301377;28;20049;-82
2022/10/12 10:02:06;;;;;;;21.63;11.32;;;;;;;;;;10299455;28;20029;-79
2022/10/12 10:07:21;;;;;;;28.13;12.57;;;;;;;;;;10303812;28;20030;-75
2022/10/12 10:12:24;;;;;;;27.98;11.32;;;;;;;;;;10301885;28;20049;-76
2022/10/12 10:17:25;;;;;;;21.65;10.60;;;;;;;;;;10302072;28;20101;-78
2022/10/12 10:22:27;;;;;;;25.00;12.55;;;;;;;;;;10325799;28;20046;-81
2022/10/12 10:27:32;;;;;;;37.63;12.85;;;;;;;;;;10300158;28;20025;-75
2022/10/12 10:32:32;;;;;;;23.35;12.50;;;;;;;;;;10299809;28;20512;-80
2022/10/12 10:37:33;;;;;;;23.77;11.70;;;;;;;;;;10300780;28;20109;-74
2022/10/12 10:42:34;;;;;;;25.63;10.30;;;;;;;;;;10299161;28;20011;-75
2022/10/12 10:47:42;;;;;;;20.35;10.10;;;;;;;;;;10285223;28;20516;-81
2022/10/12 10:52:42;;;;;;;17.20;9.40;;;;;;;;;;10324513;28;20104;-80
2022/10/12 10:57:45;;;;;;;23.80;9.57;;;;;;;;;;10299776;28;20113;-78
2022/10/12 11:02:51;;;;;;;17.25;9.68;;;;;;;;;;10303343;28;20508;-74
2022/10/12 11:07:56;;;;;;;19.55;10.40;;;;;;;;;;10306781;28;20019;-82
2022/10/12 11:12:59;;;;;;;23.73;10.35;;;;;;;;;;10329614;28;20091;-83
2022/10/12 11:18:06;;;;;;;16.63;9.85;;;;;;;;;;10309027;28;20073;-78
2022/10/12 11:23:19;;;;;;;20.17;10.25;;;;;;;;;;10306402;28;20054;-75
2022/10/12 11:28:19;;;;;;;23.88;11.13;;;;;;;;;;10309734;28;20031;-80
2022/10/12 11:33:22;;;;;;;15.67;9.10;;;;;;;;;;10306057;28;20101;-81
2022/10/12 11:38:26;;;;;;;16.33;9.00;;;;;;;;;;10305447;28;20277;-80
2022/10/12 11:43:29;;;;;;;19.42;9.77;;;;;;;;;;10306595;28;20489;-75
2022/10/12 11:48:44;;;;;;;17.35;9.57;;;;;;;;;;10305007;28;20698;-78
2022/10/12 11:53:44;;;;;;;27.77;11.10;;;;;;;;;;10303469;28;20029;-75
2022/10/12 11:58:47;;;;;;;20.27;8.55;;;;;;;;;;10321238;28;20021;-79
2022/10/12 12:03:59;;;;;;;16.38;9.75;;;;;;;;;;10305156;28;20025;-77
2022/10/12 12:08:59;;;;;;;19.95;9.32;;;;;;;;;;10305356;28;20396;-81
2022/10/12 12:14:18;;;;;;;17.77;10.02;;;;;;;;;;10329558;28;20023;-83
2022/10/12 12:19:38;;;;;;;24.50;10.40;;;;;;;;;;10304478;28;20019;-79
2022/10/12 12:24:39;;;;;;;17.45;9.98;;;;;;;;;;10306004;28;20560;-79
2022/10/12 12:29:39;;;;;;;18.80;9.25;;;;;;;;;;10304460;28;20015;-78
2022/10/12 12:34:47;;;;;;;19.38;9.55;;;;;;;;;;10302974;28;20030;-80
2022/10/12 12:39:53;;;;;;;17.07;10.30;;;;;;;;;;10303320;28;20026;-82
2022/10/12 12:44:53;;;;;;;18.40;9.27;;;;;;;;;;10304057;28;20078;-73
2022/10/12 12:49:56;;;;;;;21.67;11.30;;;;;;;;;;10303017;28;20018;-76
2022/10/12 12:55:08;;;;;;;14.75;9.00;;;;;;;;;;10303670;28;20417;-76
2022/10/12 13:00:13;;;;;;;22.35;10.40;;;;;;;;;;10325705;28;21726;-75
2022/10/12 13:05:32;;;;;;;21.92;11.13;;;;;;;;;;10287791;28;20096;-76
2022/10/12 13:10:32;;;;;;;18.17;9.55;;;;;;;;;;10301266;28;20081;-74
2022/10/12 13:15:51;;;;;;;17.05;9.80;;;;;;;;;;10302817;28;20113;-75
2022/10/12 13:20:51;;;;;;;18.38;10.27;;;;;;;;;;10305157;28;20133;-83
2022/10/12 13:25:55;;;;;;;20.17;10.10;;;;;;;;;;10301701;28;20014;-73
2022/10/12 13:31:01;;;;;;;20.77;11.75;;;;;;;;;;10302323;28;20050;-79
2022/10/12 13:36:09;;;;;;;20.00;10.63;;;;;;;;;;10301414;28;20030;-80
2022/10/12 13:41:12;;;;;;;19.17;11.95;;;;;;;;;;10302225;28;20370;-80
2022/10/12 13:46:13;;;;;;;26.67;13.02;;;;;;;;;;10301023;28;20018;-80
2022/10/12 13:51:32;;;;;;;24.48;11.90;;;;;;;;;;10299630;28;20447;-79
2022/10/12 13:56:32;;;;;;;20.38;10.80;;;;;;;;;;10301822;28;20089;-76
2022/10/12 14:01:45;;;;;;;21.35;11.30;;;;;;;;;;10283927;28;20655;-76
2022/10/12 14:06:51;;;;;;;24.00;11.75;;;;;;;;;;10284170;28;20018;-78
2022/10/12 14:11:53;;;;;;;21.42;12.52;;;;;;;;;;10299227;28;20042;-76
2022/10/12 14:16:53;;;;;;;19.95;11.30;;;;;;;;;;10299880;28;20054;-75
2022/10/12 14:21:54;;;;;;;22.13;11.53;;;;;;;;;;10325751;28;20057;-74
2022/10/12 14:26:55;;;;;;;23.60;11.43;;;;;;;;;;10301925;28;20046;-79
2022/10/12 14:31:58;;;;;;;21.70;12.75;;;;;;;;;;10302269;28;20030;-80
2022/10/12 14:37:04;;;;;;;23.58;12.40;;;;;;;;;;10300108;28;20030;-75
2022/10/12 14:42:23;;;;;;;25.95;11.20;;;;;;;;;;10299449;28;20508;-79
2022/10/12 14:47:24;;;;;;;23.75;12.13;;;;;;;;;;10303835;28;20065;-80
2022/10/12 14:52:33;;;;;;;23.87;13.53;;;;;;;;;;10296181;28;20037;-75
2022/10/12 14:57:33;;;;;;;22.52;12.35;;;;;;;;;;10294964;28;20026;-75
2022/10/12 15:02:35;;;;;;;22.15;13.25;;;;;;;;;;10288024;28;20019;-80
2022/10/12 15:07:35;;;;;;;29.88;14.25;;;;;;;;;;10295808;28;20034;-77
2022/10/12 15:12:35;;;;;;;22.27;12.57;;;;;;;;;;10280772;28;20034;-79
2022/10/12 15:17:36;;;;;;;24.37;13.13;;;;;;;;;;10292165;28;20030;-80
2022/10/12 15:22:36;;;;;;;27.08;14.15;;;;;;;;;;10293909;28;20060;-81
2022/10/12 15:27:37;;;;;;;32.17;12.85;;;;;;;;;;10290338;28;20114;-81
2022/10/12 15:32:37;;;;;;;30.58;15.13;;;;;;;;;;10294211;28;20543;-74
2022/10/12 15:37:37;;;;;;;24.30;13.73;;;;;;;;;;10291066;28;20495;-74
2022/10/12 15:42:38;;;;;;;28.87;14.63;;;;;;;;;;10292378;28;20022;-74
2022/10/12 15:47:38;;;;;;;30.83;14.73;;;;;;;;;;10293198;28;20413;-77
2022/10/12 15:52:39;;;;;;;25.17;12.85;;;;;;;;;;10297362;28;20285;-74
2022/10/12 15:57:39;;;;;;;23.95;12.45;;;;;;;;;;10294398;28;20099;-75
2022/10/12 16:02:41;;;;;;;27.98;13.77;;;;;;;;;;10298469;28;20033;-74
2022/10/12 16:07:41;;;;;;;27.15;13.90;;;;;;;;;;10298516;28;20404;-74
2022/10/12 16:12:42;;;;;;;28.85;13.35;;;;;;;;;;10299332;28;20022;-75
2022/10/12 16:17:42;;;;;;;26.00;13.57;;;;;;;;;;10296926;28;20034;-75
2022/10/12 16:22:43;;;;;;;25.33;15.55;;;;;;;;;;10301752;28;20051;-76
2022/10/12 16:27:44;;;;;;;31.77;14.82;;;;;;;;;;10299731;28;20050;-75
2022/10/12 16:32:44;;;;;;;32.42;13.77;;;;;;;;;;10299721;28;20464;-74
2022/10/12 16:37:45;;;;;;;27.63;14.70;;;;;;;;;;10302202;28;20022;-74
2022/10/12 16:42:49;;;;;;;25.05;12.82;;;;;;;;;;10302484;28;20081;-75
2022/10/12 16:47:49;;;;;;;28.58;13.65;;;;;;;;;;10316154;28;20485;-75
2022/10/12 16:52:50;;;;;;;26.92;14.68;;;;;;;;;;10298078;28;20023;-75
2022/10/12 16:57:50;;;;;;;31.25;14.05;;;;;;;;;;10290796;28;20065;-76
2022/10/12 17:02:50;;;;;;;30.10;15.75;;;;;;;;;;10289265;28;20023;-75
2022/10/12 17:07:50;;;;;;;30.87;16.10;;;;;;;;;;10301907;28;20038;-74
2022/10/12 17:12:51;;;;;;;32.67;17.05;;;;;;;;;;10304108;28;20019;-74
2022/10/12 17:17:52;;;;;;;38.25;17.67;;;;;;;;;;10295802;28;20234;-77
2022/10/12 17:22:53;;;;;;;28.13;16.73;;;;;;;;;;10296348;28;20105;-77
2022/10/12 17:27:53;;;;;;;32.10;15.52;;;;;;;;;;10293275;28;20034;-80
2022/10/12 17:32:58;;;;;;;33.33;16.15;;;;;;;;;;10296901;28;20081;-79
2022/10/12 17:38:01;;;;;;;30.50;13.95;;;;;;;;;;10299687;28;20023;-80
2022/10/12 17:43:05;;;;;;;25.80;13.18;;;;;;;;;;10291742;28;20536;-75
2022/10/12 17:48:05;;;;;;;24.92;12.38;;;;;;;;;;10292713;28;20029;-75
2022/10/12 17:53:05;;;;;;;23.05;11.02;;;;;;;;;;10297269;28;20125;-74
2022/10/12 17:58:08;;;;;;;19.98;10.85;;;;;;;;;;10290505;28;20114;-76
2022/10/12 18:03:10;;;;;;;24.00;11.90;;;;;;;;;;10294008;28;20461;-73
2022/10/12 18:08:10;;;;;;;22.58;12.32;;;;;;;;;;10285211;28;20537;-76
2022/10/12 18:13:10;;;;;;;23.92;11.50;;;;;;;;;;10295063;28;20026;-74
2022/10/12 18:18:11;;;;;;;20.63;12.30;;;;;;;;;;10293795;28;20485;-74
2022/10/12 18:23:11;;;;;;;17.13;9.35;;;;;;;;;;10311040;28;20046;-74
2022/10/12 18:28:12;;;;;;;16.57;9.43;;;;;;;;;;10295665;28;20050;-75
2022/10/12 18:33:14;;;;;;;19.63;9.45;;;;;;;;;;10313372;28;20285;-79
2022/10/12 18:38:14;;;;;;;18.27;9.52;;;;;;;;;;10315429;28;20019;-79
2022/10/12 18:43:15;;;;;;;17.05;8.20;;;;;;;;;;10292470;28;20048;-80
2022/10/12 18:48:16;;;;;;;14.50;8.07;;;;;;;;;;10293895;28;20089;-74
2022/10/12 18:53:16;;;;;;;17.38;8.23;;;;;;;;;;10292822;28;20409;-77
2022/10/12 18:58:17;;;;;;;17.38;8.82;;;;;;;;;;10297147;28;20093;-74
2022/10/12 19:03:17;;;;;;;20.25;7.40;;;;;;;;;;10292711;28;20030;-75
2022/10/12 19:08:17;;;;;;;23.38;8.18;;;;;;;;;;10289810;28;20027;-75
2022/10/12 19:13:17;;;;;;;12.85;7.60;;;;;;;;;;10316730;28;20037;-76
2022/10/12 19:18:18;;;;;;;17.75;8.75;;;;;;;;;;10290655;28;20022;-77
2022/10/12 19:23:18;;;;;;;15.48;9.00;;;;;;;;;;10316767;28;20054;-79
2022/10/12 19:28:19;;;;;;;20.70;7.93;;;;;;;;;;10296412;28;20118;-73
2022/10/12 19:33:19;;;;;;;16.65;8.05;;;;;;;;;;10287653;28;20030;-80
2022/10/12 19:38:20;;;;;;;20.08;8.52;;;;;;;;;;10304197;28;20074;-74
2022/10/12 19:43:21;;;;;;;17.40;7.28;;;;;;;;;;10286174;28;20505;-73
2022/10/12 19:48:21;;;;;;;21.33;8.32;;;;;;;;;;10287843;28;20473;-80
2022/10/12 19:53:21;;;;;;;15.70;7.47;;;;;;;;;;10296293;28;20145;-76
2022/10/12 19:58:21;;;;;;;12.40;6.60;;;;;;;;;;10307530;28;20027;-75
2022/10/12 20:03:22;;;;;;;20.92;11.60;;;;;;;;;;10304990;28;20046;-80
2022/10/12 20:08:22;;;;;;;10.13;6.10;;;;;;;;;;10300383;28;20113;-74
2022/10/12 20:13:22;;;;;;;10.90;6.17;;;;;;;;;;10297109;28;20034;-79
2022/10/12 20:18:23;;;;;;;15.10;6.03;;;;;;;;;;10296032;28;20479;-79
2022/10/12 20:23:24;;;;;;;9.27;5.22;;;;;;;;;;10294503;28;20063;-81
2022/10/12 20:28:25;;;;;;;7.10;4.37;;;;;;;;;;10296948;28;20029;-81
2022/10/12 20:33:26;;;;;;;10.82;4.43;;;;;;;;;;10289983;28;20038;-79
2022/10/12 20:38:27;;;;;;;12.53;4.87;;;;;;;;;;10293587;28;20042;-75
2022/10/12 20:43:27;;;;;;;9.27;5.38;;;;;;;;;;10287510;28;20298;-75
2022/10/12 20:48:27;;;;;;;10.20;5.00;;;;;;;;;;10289473;28;20035;-74
2022/10/12 20:53:28;;;;;;;7.88;4.78;;;;;;;;;;10288500;28;20030;-74
2022/10/12 20:58:28;;;;;;;12.75;4.63;;;;;;;;;;10310169;28;20082;-79
2022/10/12 21:03:29;;;;;;;8.15;4.65;;;;;;;;;;10285940;28;20086;-74
2022/10/12 21:08:29;;;;;;;9.43;5.15;;;;;;;;;;10287351;28;20122;-75
2022/10/12 21:13:30;;;;;;;12.30;5.72;;;;;;;;;;10286782;28;20062;-80
2022/10/12 21:18:30;;;;;;;7.70;4.05;;;;;;;;;;10287326;28;20452;-79
2022/10/12 21:23:33;;;;;;;5.90;3.67;;;;;;;;;;10282938;28;20477;-80
2022/10/12 21:28:33;;;;;;;11.55;4.95;;;;;;;;;;10292538;28;20026;-74
2022/10/12 21:33:34;;;;;;;9.35;5.05;;;;;;;;;;10287509;28;20023;-80
2022/10/12 21:38:34;;;;;;;8.98;5.55;;;;;;;;;;10293812;28;20485;-81
2022/10/12 21:43:35;;;;;;;10.53;5.73;;;;;;;;;;10293110;28;20022;-83
2022/10/12 21:48:35;;;;;;;11.35;5.97;;;;;;;;;;10290368;28;20130;-77
2022/10/12 21:53:36;;;;;;;12.23;6.40;;;;;;;;;;10288615;28;20430;-76
2022/10/12 21:58:37;;;;;;;10.55;5.63;;;;;;;;;;10281034;28;20042;-74
2022/10/12 22:03:37;;;;;;;8.15;4.60;;;;;;;;;;10285839;28;20121;-75
2022/10/12 22:08:38;;;;;;;7.95;4.47;;;;;;;;;;10287967;28;20117;-77
2022/10/12 22:13:38;;;;;;;7.68;3.85;;;;;;;;;;10289803;28;20027;-75
2022/10/12 22:18:38;;;;;;;9.27;4.05;;;;;;;;;;10294425;28;20016;-80
2022/10/12 22:23:39;;;;;;;5.95;3.83;;;;;;;;;;10296618;28;20425;-80
2022/10/12 22:28:39;;;;;;;6.18;3.20;;;;;;;;;;10297772;28;20547;-76
2022/10/12 22:33:39;;;;;;;5.38;3.03;;;;;;;;;;10295821;28;20041;-75
2022/10/12 22:38:46;;;;;;;8.52;4.55;;;;;;;;;;10295830;28;20450;-81
2022/10/12 22:43:47;;;;;;;10.25;5.22;;;;;;;;;;10288469;28;20030;-77
2022/10/12 22:48:48;;;;;;;6.65;4.03;;;;;;;;;;10299879;28;20432;-73
2022/10/12 22:53:48;;;;;;;8.52;3.88;;;;;;;;;;10297492;28;20022;-75
2022/10/12 22:58:52;;;;;;;7.32;3.45;;;;;;;;;;10300159;28;20044;-73
2022/10/12 23:03:53;;;;;;;8.15;3.55;;;;;;;;;;10297847;28;20022;-75
2022/10/12 23:08:53;;;;;;;7.28;4.20;;;;;;;;;;10294019;28;20018;-82
2022/10/12 23:13:55;;;;;;;6.70;3.43;;;;;;;;;;10297258;28;20027;-81
2022/10/12 23:18:56;;;;;;;7.38;4.57;;;;;;;;;;10314279;28;20092;-75
2022/10/12 23:23:57;;;;;;;11.15;5.40;;;;;;;;;;10298054;28;20050;-77
2022/10/12 23:28:57;;;;;;;10.80;5.43;;;;;;;;;;10297051;28;20489;-76
2022/10/12 23:33:59;;;;;;;11.75;6.55;;;;;;;;;;10294145;28;20039;-82
2022/10/12 23:39:00;;;;;;;11.07;6.03;;;;;;;;;;10306464;28;20026;-76
2022/10/12 23:44:00;;;;;;;12.27;6.68;;;;;;;;;;10293121;28;20376;-78
2022/10/12 23:49:00;;;;;;;9.37;5.83;;;;;;;;;;10284116;28;20098;-80
2022/10/12 23:54:01;;;;;;;8.23;5.38;;;;;;;;;;10321941;28;20121;-80
2022/10/12 23:59:01;;;;;;;12.00;4.38;;;;;;;;;;10320868;28;20031;-76
